sensor_id;sensor_type;location;lat;lon;timestamp;P1;durP1;ratioP1;P2;durP2;ratioP2
74328;SDS011;62745;51.060;13.786;2023-04-24T00:01:14;6.03;;;2.90;;
74328;SDS011;62745;51.060;13.786;2023-04-24T00:03:40;5.88;;;2.47;;
74328;SDS011;62745;51.060;13.786;2023-04-24T00:06:06;5.07;;;2.92;;
74328;SDS011;62745;51.060;13.786;2023-04-24T00:08:33;4.93;;;2.60;;
74328;SDS011;62745;51.060;13.786;2023-04-24T00:10:58;4.80;;;2.70;;
74328;SDS011;62745;51.060;13.786;2023-04-24T00:13:24;4.90;;;2.60;;
74328;SDS011;62745;51.060;13.786;2023-04-24T00:15:49;5.20;;;2.88;;
74328;SDS011;62745;51.060;13.786;2023-04-24T00:18:14;5.13;;;3.10;;
74328;SDS011;62745;51.060;13.786;2023-04-24T00:20:40;6.25;;;3.47;;
74328;SDS011;62745;51.060;13.786;2023-04-24T00:23:05;6.57;;;3.10;;
74328;SDS011;62745;51.060;13.786;2023-04-24T00:25:30;6.70;;;2.63;;
74328;SDS011;62745;51.060;13.786;2023-04-24T00:27:56;5.57;;;3.55;;
74328;SDS011;62745;51.060;13.786;2023-04-24T00:30:21;6.63;;;3.20;;
74328;SDS011;62745;51.060;13.786;2023-04-24T00:32:46;5.82;;;3.33;;
74328;SDS011;62745;51.060;13.786;2023-04-24T00:35:12;7.33;;;3.10;;
74328;SDS011;62745;51.060;13.786;2023-04-24T00:37:37;5.40;;;2.70;;
74328;SDS011;62745;51.060;13.786;2023-04-24T00:40:02;5.40;;;3.25;;
74328;SDS011;62745;51.060;13.786;2023-04-24T00:42:28;6.55;;;2.80;;
74328;SDS011;62745;51.060;13.786;2023-04-24T00:44:53;8.25;;;3.13;;
74328;SDS011;62745;51.060;13.786;2023-04-24T00:47:19;6.75;;;3.78;;
74328;SDS011;62745;51.060;13.786;2023-04-24T00:49:44;5.05;;;3.38;;
74328;SDS011;62745;51.060;13.786;2023-04-24T00:52:10;6.13;;;3.53;;
74328;SDS011;62745;51.060;13.786;2023-04-24T00:54:37;5.60;;;3.10;;
74328;SDS011;62745;51.060;13.786;2023-04-24T00:57:02;7.67;;;3.17;;
74328;SDS011;62745;51.060;13.786;2023-04-24T00:59:28;6.60;;;3.50;;
74328;SDS011;62745;51.060;13.786;2023-04-24T01:01:54;5.97;;;2.65;;
74328;SDS011;62745;51.060;13.786;2023-04-24T01:04:20;7.00;;;3.38;;
74328;SDS011;62745;51.060;13.786;2023-04-24T01:06:46;6.72;;;2.90;;
74328;SDS011;62745;51.060;13.786;2023-04-24T01:09:11;7.18;;;3.35;;
74328;SDS011;62745;51.060;13.786;2023-04-24T01:11:37;5.60;;;3.20;;
74328;SDS011;62745;51.060;13.786;2023-04-24T01:14:02;6.93;;;3.10;;
74328;SDS011;62745;51.060;13.786;2023-04-24T01:16:28;6.53;;;2.90;;
74328;SDS011;62745;51.060;13.786;2023-04-24T01:18:54;6.75;;;2.70;;
74328;SDS011;62745;51.060;13.786;2023-04-24T01:21:19;4.90;;;2.85;;
74328;SDS011;62745;51.060;13.786;2023-04-24T01:23:46;6.60;;;3.10;;
74328;SDS011;62745;51.060;13.786;2023-04-24T01:26:12;5.53;;;2.80;;
74328;SDS011;62745;51.060;13.786;2023-04-24T01:28:38;6.15;;;3.08;;
74328;SDS011;62745;51.060;13.786;2023-04-24T01:31:04;6.60;;;3.42;;
74328;SDS011;62745;51.060;13.786;2023-04-24T01:33:29;6.00;;;3.58;;
74328;SDS011;62745;51.060;13.786;2023-04-24T01:35:55;5.85;;;3.63;;
74328;SDS011;62745;51.060;13.786;2023-04-24T01:38:20;6.35;;;3.67;;
74328;SDS011;62745;51.060;13.786;2023-04-24T01:40:45;7.20;;;3.20;;
74328;SDS011;62745;51.060;13.786;2023-04-24T01:43:12;5.00;;;3.28;;
74328;SDS011;62745;51.060;13.786;2023-04-24T01:45:37;6.32;;;3.83;;
74328;SDS011;62745;51.060;13.786;2023-04-24T01:48:02;6.60;;;2.83;;
74328;SDS011;62745;51.060;13.786;2023-04-24T01:50:28;7.60;;;3.78;;
74328;SDS011;62745;51.060;13.786;2023-04-24T01:52:53;5.77;;;3.37;;
74328;SDS011;62745;51.060;13.786;2023-04-24T01:55:18;8.07;;;4.10;;
74328;SDS011;62745;51.060;13.786;2023-04-24T01:57:44;4.40;;;2.40;;
74328;SDS011;62745;51.060;13.786;2023-04-24T02:00:09;5.37;;;2.73;;
74328;SDS011;62745;51.060;13.786;2023-04-24T02:02:36;5.57;;;2.85;;
74328;SDS011;62745;51.060;13.786;2023-04-24T02:05:02;5.88;;;3.45;;
74328;SDS011;62745;51.060;13.786;2023-04-24T02:07:28;6.93;;;3.17;;
74328;SDS011;62745;51.060;13.786;2023-04-24T02:09:53;8.67;;;3.03;;
74328;SDS011;62745;51.060;13.786;2023-04-24T02:12:18;6.43;;;3.10;;
74328;SDS011;62745;51.060;13.786;2023-04-24T02:14:44;5.47;;;3.15;;
74328;SDS011;62745;51.060;13.786;2023-04-24T02:17:09;6.70;;;3.23;;
74328;SDS011;62745;51.060;13.786;2023-04-24T02:19:37;6.35;;;3.42;;
74328;SDS011;62745;51.060;13.786;2023-04-24T02:22:02;5.60;;;3.60;;
74328;SDS011;62745;51.060;13.786;2023-04-24T02:24:27;6.57;;;2.90;;
74328;SDS011;62745;51.060;13.786;2023-04-24T02:26:52;5.00;;;2.73;;
74328;SDS011;62745;51.060;13.786;2023-04-24T02:29:18;8.93;;;3.23;;
74328;SDS011;62745;51.060;13.786;2023-04-24T02:31:43;5.45;;;3.47;;
74328;SDS011;62745;51.060;13.786;2023-04-24T02:34:08;6.33;;;3.23;;
74328;SDS011;62745;51.060;13.786;2023-04-24T02:36:33;6.67;;;3.03;;
74328;SDS011;62745;51.060;13.786;2023-04-24T02:38:59;6.80;;;3.13;;
74328;SDS011;62745;51.060;13.786;2023-04-24T02:41:25;5.47;;;3.40;;
74328;SDS011;62745;51.060;13.786;2023-04-24T02:43:56;5.50;;;2.95;;
74328;SDS011;62745;51.060;13.786;2023-04-24T02:46:21;6.47;;;2.87;;
74328;SDS011;62745;51.060;13.786;2023-04-24T02:48:46;5.67;;;3.30;;
74328;SDS011;62745;51.060;13.786;2023-04-24T02:51:11;6.93;;;2.97;;
74328;SDS011;62745;51.060;13.786;2023-04-24T02:53:37;6.97;;;3.50;;
74328;SDS011;62745;51.060;13.786;2023-04-24T02:56:02;7.03;;;3.20;;
74328;SDS011;62745;51.060;13.786;2023-04-24T02:58:27;5.90;;;3.30;;
74328;SDS011;62745;51.060;13.786;2023-04-24T03:00:53;4.97;;;3.07;;
74328;SDS011;62745;51.060;13.786;2023-04-24T03:03:20;6.60;;;3.35;;
74328;SDS011;62745;51.060;13.786;2023-04-24T03:05:46;6.10;;;3.25;;
74328;SDS011;62745;51.060;13.786;2023-04-24T03:08:12;6.88;;;3.25;;
74328;SDS011;62745;51.060;13.786;2023-04-24T03:10:37;7.03;;;3.00;;
74328;SDS011;62745;51.060;13.786;2023-04-24T03:13:02;6.00;;;3.37;;
74328;SDS011;62745;51.060;13.786;2023-04-24T03:15:28;6.93;;;3.80;;
74328;SDS011;62745;51.060;13.786;2023-04-24T03:17:53;7.13;;;2.97;;
74328;SDS011;62745;51.060;13.786;2023-04-24T03:20:18;7.13;;;3.47;;
74328;SDS011;62745;51.060;13.786;2023-04-24T03:22:43;5.90;;;3.10;;
74328;SDS011;62745;51.060;13.786;2023-04-24T03:25:09;7.25;;;3.30;;
74328;SDS011;62745;51.060;13.786;2023-04-24T03:27:34;6.13;;;2.92;;
74328;SDS011;62745;51.060;13.786;2023-04-24T03:30:00;6.90;;;3.85;;
74328;SDS011;62745;51.060;13.786;2023-04-24T03:32:25;5.80;;;3.40;;
74328;SDS011;62745;51.060;13.786;2023-04-24T03:34:51;6.27;;;3.63;;
74328;SDS011;62745;51.060;13.786;2023-04-24T03:37:16;6.20;;;3.87;;
74328;SDS011;62745;51.060;13.786;2023-04-24T03:39:42;5.22;;;2.92;;
74328;SDS011;62745;51.060;13.786;2023-04-24T03:42:07;5.70;;;2.75;;
74328;SDS011;62745;51.060;13.786;2023-04-24T03:44:33;7.65;;;3.40;;
74328;SDS011;62745;51.060;13.786;2023-04-24T03:46:59;6.13;;;3.20;;
74328;SDS011;62745;51.060;13.786;2023-04-24T03:49:24;6.35;;;3.80;;
74328;SDS011;62745;51.060;13.786;2023-04-24T03:51:49;8.73;;;4.00;;
74328;SDS011;62745;51.060;13.786;2023-04-24T03:54:15;7.20;;;3.42;;
74328;SDS011;62745;51.060;13.786;2023-04-24T03:56:40;6.93;;;3.90;;
74328;SDS011;62745;51.060;13.786;2023-04-24T03:59:06;8.80;;;4.10;;
74328;SDS011;62745;51.060;13.786;2023-04-24T04:01:31;5.60;;;2.90;;
74328;SDS011;62745;51.060;13.786;2023-04-24T04:03:56;7.13;;;3.20;;
74328;SDS011;62745;51.060;13.786;2023-04-24T04:06:21;6.83;;;3.53;;
74328;SDS011;62745;51.060;13.786;2023-04-24T04:08:47;5.95;;;3.60;;
74328;SDS011;62745;51.060;13.786;2023-04-24T04:11:12;5.63;;;3.25;;
74328;SDS011;62745;51.060;13.786;2023-04-24T04:13:48;6.30;;;3.22;;
74328;SDS011;62745;51.060;13.786;2023-04-24T04:16:14;5.53;;;3.63;;
74328;SDS011;62745;51.060;13.786;2023-04-24T04:18:41;6.22;;;2.97;;
74328;SDS011;62745;51.060;13.786;2023-04-24T04:21:07;7.15;;;3.85;;
74328;SDS011;62745;51.060;13.786;2023-04-24T04:23:32;7.22;;;4.22;;
74328;SDS011;62745;51.060;13.786;2023-04-24T04:25:57;6.45;;;3.65;;
74328;SDS011;62745;51.060;13.786;2023-04-24T04:28:23;15.13;;;4.17;;
74328;SDS011;62745;51.060;13.786;2023-04-24T04:30:49;7.93;;;3.53;;
74328;SDS011;62745;51.060;13.786;2023-04-24T04:33:18;6.78;;;3.13;;
74328;SDS011;62745;51.060;13.786;2023-04-24T04:35:43;6.00;;;2.25;;
74328;SDS011;62745;51.060;13.786;2023-04-24T04:38:09;5.35;;;2.47;;
74328;SDS011;62745;51.060;13.786;2023-04-24T04:40:35;8.07;;;2.95;;
74328;SDS011;62745;51.060;13.786;2023-04-24T04:43:01;6.53;;;3.30;;
74328;SDS011;62745;51.060;13.786;2023-04-24T04:45:27;7.00;;;2.63;;
74328;SDS011;62745;51.060;13.786;2023-04-24T04:47:53;5.85;;;3.40;;
74328;SDS011;62745;51.060;13.786;2023-04-24T04:50:19;4.80;;;2.20;;
74328;SDS011;62745;51.060;13.786;2023-04-24T04:52:45;4.85;;;2.10;;
74328;SDS011;62745;51.060;13.786;2023-04-24T04:55:11;6.25;;;2.58;;
74328;SDS011;62745;51.060;13.786;2023-04-24T04:57:38;6.20;;;2.97;;
74328;SDS011;62745;51.060;13.786;2023-04-24T05:00:03;6.68;;;2.05;;
74328;SDS011;62745;51.060;13.786;2023-04-24T05:02:29;6.05;;;2.72;;
74328;SDS011;62745;51.060;13.786;2023-04-24T05:04:55;5.87;;;2.00;;
74328;SDS011;62745;51.060;13.786;2023-04-24T05:07:20;4.60;;;2.45;;
74328;SDS011;62745;51.060;13.786;2023-04-24T05:09:45;7.63;;;2.03;;
74328;SDS011;62745;51.060;13.786;2023-04-24T05:12:11;6.07;;;2.33;;
74328;SDS011;62745;51.060;13.786;2023-04-24T05:14:36;5.03;;;2.63;;
74328;SDS011;62745;51.060;13.786;2023-04-24T05:17:01;4.30;;;1.30;;
74328;SDS011;62745;51.060;13.786;2023-04-24T05:19:27;4.28;;;1.67;;
74328;SDS011;62745;51.060;13.786;2023-04-24T05:21:52;6.73;;;1.97;;
74328;SDS011;62745;51.060;13.786;2023-04-24T05:24:18;6.80;;;2.37;;
74328;SDS011;62745;51.060;13.786;2023-04-24T05:26:43;4.57;;;2.20;;
74328;SDS011;62745;51.060;13.786;2023-04-24T05:29:08;5.47;;;2.03;;
74328;SDS011;62745;51.060;13.786;2023-04-24T05:31:33;6.53;;;2.07;;
74328;SDS011;62745;51.060;13.786;2023-04-24T05:33:59;5.38;;;1.80;;
74328;SDS011;62745;51.060;13.786;2023-04-24T05:36:24;4.47;;;1.92;;
74328;SDS011;62745;51.060;13.786;2023-04-24T05:38:50;5.65;;;2.67;;
74328;SDS011;62745;51.060;13.786;2023-04-24T05:41:15;8.50;;;2.50;;
74328;SDS011;62745;51.060;13.786;2023-04-24T05:43:40;4.13;;;2.10;;
74328;SDS011;62745;51.060;13.786;2023-04-24T05:46:05;6.15;;;2.05;;
74328;SDS011;62745;51.060;13.786;2023-04-24T05:48:31;5.73;;;1.90;;
74328;SDS011;62745;51.060;13.786;2023-04-24T05:50:56;4.57;;;2.13;;
74328;SDS011;62745;51.060;13.786;2023-04-24T05:53:21;6.22;;;1.65;;
74328;SDS011;62745;51.060;13.786;2023-04-24T05:55:47;3.03;;;1.48;;
74328;SDS011;62745;51.060;13.786;2023-04-24T05:58:12;4.90;;;1.73;;
74328;SDS011;62745;51.060;13.786;2023-04-24T06:00:38;6.40;;;1.65;;
74328;SDS011;62745;51.060;13.786;2023-04-24T06:03:06;4.13;;;1.65;;
74328;SDS011;62745;51.060;13.786;2023-04-24T06:05:31;4.30;;;1.60;;
74328;SDS011;62745;51.060;13.786;2023-04-24T06:07:57;3.17;;;1.37;;
74328;SDS011;62745;51.060;13.786;2023-04-24T06:10:22;4.07;;;1.77;;
74328;SDS011;62745;51.060;13.786;2023-04-24T06:12:47;3.70;;;1.37;;
74328;SDS011;62745;51.060;13.786;2023-04-24T06:15:12;5.17;;;1.60;;
74328;SDS011;62745;51.060;13.786;2023-04-24T06:17:38;4.50;;;1.30;;
74328;SDS011;62745;51.060;13.786;2023-04-24T06:20:03;3.43;;;1.20;;
74328;SDS011;62745;51.060;13.786;2023-04-24T06:22:30;4.55;;;1.20;;
74328;SDS011;62745;51.060;13.786;2023-04-24T06:24:56;4.13;;;1.17;;
74328;SDS011;62745;51.060;13.786;2023-04-24T06:27:21;4.83;;;1.40;;
74328;SDS011;62745;51.060;13.786;2023-04-24T06:29:46;3.53;;;1.23;;
74328;SDS011;62745;51.060;13.786;2023-04-24T06:32:17;2.88;;;1.00;;
74328;SDS011;62745;51.060;13.786;2023-04-24T06:34:42;5.33;;;1.40;;
74328;SDS011;62745;51.060;13.786;2023-04-24T06:37:08;2.33;;;0.90;;
74328;SDS011;62745;51.060;13.786;2023-04-24T06:39:33;2.63;;;1.00;;
74328;SDS011;62745;51.060;13.786;2023-04-24T06:41:58;3.63;;;1.30;;
74328;SDS011;62745;51.060;13.786;2023-04-24T06:44:23;5.83;;;2.00;;
74328;SDS011;62745;51.060;13.786;2023-04-24T06:46:49;4.97;;;1.10;;
74328;SDS011;62745;51.060;13.786;2023-04-24T06:49:14;3.90;;;1.40;;
74328;SDS011;62745;51.060;13.786;2023-04-24T06:51:40;3.53;;;1.15;;
74328;SDS011;62745;51.060;13.786;2023-04-24T06:54:14;3.77;;;1.30;;
74328;SDS011;62745;51.060;13.786;2023-04-24T06:56:39;3.65;;;1.00;;
74328;SDS011;62745;51.060;13.786;2023-04-24T06:59:04;3.20;;;1.10;;
74328;SDS011;62745;51.060;13.786;2023-04-24T07:01:30;2.30;;;0.90;;
74328;SDS011;62745;51.060;13.786;2023-04-24T07:03:55;2.67;;;0.90;;
74328;SDS011;62745;51.060;13.786;2023-04-24T07:06:20;3.20;;;1.00;;
74328;SDS011;62745;51.060;13.786;2023-04-24T07:08:47;4.07;;;0.80;;
74328;SDS011;62745;51.060;13.786;2023-04-24T07:11:13;2.10;;;0.70;;
74328;SDS011;62745;51.060;13.786;2023-04-24T07:13:38;2.27;;;0.83;;
74328;SDS011;62745;51.060;13.786;2023-04-24T07:16:06;4.15;;;0.90;;
74328;SDS011;62745;51.060;13.786;2023-04-24T07:18:32;2.03;;;0.70;;
74328;SDS011;62745;51.060;13.786;2023-04-24T07:20:57;2.83;;;0.70;;
74328;SDS011;62745;51.060;13.786;2023-04-24T07:23:23;3.10;;;0.80;;
74328;SDS011;62745;51.060;13.786;2023-04-24T07:25:48;3.47;;;0.70;;
74328;SDS011;62745;51.060;13.786;2023-04-24T07:28:13;2.08;;;0.60;;
74328;SDS011;62745;51.060;13.786;2023-04-24T07:30:39;1.70;;;0.70;;
74328;SDS011;62745;51.060;13.786;2023-04-24T07:33:04;1.67;;;0.80;;
74328;SDS011;62745;51.060;13.786;2023-04-24T07:35:29;2.13;;;0.80;;
74328;SDS011;62745;51.060;13.786;2023-04-24T07:37:54;1.92;;;0.70;;
74328;SDS011;62745;51.060;13.786;2023-04-24T07:40:20;3.15;;;0.73;;
74328;SDS011;62745;51.060;13.786;2023-04-24T07:42:46;2.20;;;0.90;;
74328;SDS011;62745;51.060;13.786;2023-04-24T07:45:13;2.42;;;0.70;;
74328;SDS011;62745;51.060;13.786;2023-04-24T07:47:39;2.05;;;0.93;;
74328;SDS011;62745;51.060;13.786;2023-04-24T07:50:04;1.40;;;0.70;;
74328;SDS011;62745;51.060;13.786;2023-04-24T07:52:30;2.38;;;0.70;;
74328;SDS011;62745;51.060;13.786;2023-04-24T07:54:55;2.47;;;0.70;;
74328;SDS011;62745;51.060;13.786;2023-04-24T07:57:24;3.60;;;0.80;;
74328;SDS011;62745;51.060;13.786;2023-04-24T07:59:50;5.13;;;1.13;;
74328;SDS011;62745;51.060;13.786;2023-04-24T08:02:15;1.70;;;0.70;;
74328;SDS011;62745;51.060;13.786;2023-04-24T08:04:40;2.47;;;0.80;;
74328;SDS011;62745;51.060;13.786;2023-04-24T08:07:05;2.83;;;0.77;;
74328;SDS011;62745;51.060;13.786;2023-04-24T08:09:31;1.83;;;0.67;;
74328;SDS011;62745;51.060;13.786;2023-04-24T08:11:56;3.60;;;0.70;;
74328;SDS011;62745;51.060;13.786;2023-04-24T08:14:24;1.00;;;0.60;;
74328;SDS011;62745;51.060;13.786;2023-04-24T08:16:50;2.58;;;0.77;;
74328;SDS011;62745;51.060;13.786;2023-04-24T08:19:15;2.47;;;0.80;;
74328;SDS011;62745;51.060;13.786;2023-04-24T08:21:40;1.63;;;0.90;;
74328;SDS011;62745;51.060;13.786;2023-04-24T08:24:05;3.77;;;0.70;;
74328;SDS011;62745;51.060;13.786;2023-04-24T08:26:33;3.05;;;0.70;;
74328;SDS011;62745;51.060;13.786;2023-04-24T08:28:58;2.47;;;1.00;;
74328;SDS011;62745;51.060;13.786;2023-04-24T08:31:23;2.40;;;0.73;;
74328;SDS011;62745;51.060;13.786;2023-04-24T08:33:50;2.25;;;0.80;;
74328;SDS011;62745;51.060;13.786;2023-04-24T08:36:16;1.87;;;0.80;;
74328;SDS011;62745;51.060;13.786;2023-04-24T08:38:41;2.77;;;0.90;;
74328;SDS011;62745;51.060;13.786;2023-04-24T08:41:07;1.60;;;0.60;;
74328;SDS011;62745;51.060;13.786;2023-04-24T08:43:32;1.23;;;0.50;;
74328;SDS011;62745;51.060;13.786;2023-04-24T08:45:58;2.15;;;0.60;;
74328;SDS011;62745;51.060;13.786;2023-04-24T08:48:24;4.20;;;0.70;;
74328;SDS011;62745;51.060;13.786;2023-04-24T08:50:50;2.30;;;0.80;;
74328;SDS011;62745;51.060;13.786;2023-04-24T08:53:16;2.25;;;0.73;;
74328;SDS011;62745;51.060;13.786;2023-04-24T08:55:41;1.23;;;0.60;;
74328;SDS011;62745;51.060;13.786;2023-04-24T08:58:11;2.17;;;0.80;;
74328;SDS011;62745;51.060;13.786;2023-04-24T09:00:37;1.55;;;0.60;;
74328;SDS011;62745;51.060;13.786;2023-04-24T09:03:04;1.50;;;0.57;;
74328;SDS011;62745;51.060;13.786;2023-04-24T09:05:30;2.17;;;0.73;;
74328;SDS011;62745;51.060;13.786;2023-04-24T09:07:57;1.38;;;0.70;;
74328;SDS011;62745;51.060;13.786;2023-04-24T09:10:25;2.03;;;0.90;;
74328;SDS011;62745;51.060;13.786;2023-04-24T09:12:51;2.53;;;0.80;;
74328;SDS011;62745;51.060;13.786;2023-04-24T09:15:18;2.25;;;0.70;;
74328;SDS011;62745;51.060;13.786;2023-04-24T09:17:44;1.17;;;0.60;;
74328;SDS011;62745;51.060;13.786;2023-04-24T09:20:09;2.30;;;0.70;;
74328;SDS011;62745;51.060;13.786;2023-04-24T09:22:36;1.92;;;0.77;;
74328;SDS011;62745;51.060;13.786;2023-04-24T09:25:05;2.47;;;0.70;;
74328;SDS011;62745;51.060;13.786;2023-04-24T09:27:35;2.25;;;0.63;;
74328;SDS011;62745;51.060;13.786;2023-04-24T09:30:01;1.02;;;0.60;;
74328;SDS011;62745;51.060;13.786;2023-04-24T09:32:27;1.52;;;0.70;;
74328;SDS011;62745;51.060;13.786;2023-04-24T09:37:37;2.50;;;0.90;;
74328;SDS011;62745;51.060;13.786;2023-04-24T09:40:08;2.58;;;0.63;;
74328;SDS011;62745;51.060;13.786;2023-04-24T09:45:16;2.45;;;0.90;;
74328;SDS011;62745;51.060;13.786;2023-04-24T09:47:41;1.05;;;0.50;;
74328;SDS011;62745;51.060;13.786;2023-04-24T09:50:13;2.97;;;0.73;;
74328;SDS011;62745;51.060;13.786;2023-04-24T09:52:43;1.27;;;0.65;;
74328;SDS011;62745;51.060;13.786;2023-04-24T09:55:19;1.70;;;0.70;;
74328;SDS011;62745;51.060;13.786;2023-04-24T10:00:17;2.20;;;0.90;;
74328;SDS011;62745;51.060;13.786;2023-04-24T10:02:43;2.28;;;0.93;;
74328;SDS011;62745;51.060;13.786;2023-04-24T10:05:09;1.98;;;0.85;;
74328;SDS011;62745;51.060;13.786;2023-04-24T10:07:37;2.83;;;0.63;;
74328;SDS011;62745;51.060;13.786;2023-04-24T10:10:02;1.95;;;0.60;;
74328;SDS011;62745;51.060;13.786;2023-04-24T10:12:28;3.13;;;0.80;;
74328;SDS011;62745;51.060;13.786;2023-04-24T10:14:54;1.58;;;0.65;;
74328;SDS011;62745;51.060;13.786;2023-04-24T10:17:21;1.75;;;0.95;;
74328;SDS011;62745;51.060;13.786;2023-04-24T10:19:48;2.05;;;0.80;;
74328;SDS011;62745;51.060;13.786;2023-04-24T10:22:14;2.00;;;0.60;;
74328;SDS011;62745;51.060;13.786;2023-04-24T10:24:40;2.03;;;0.82;;
74328;SDS011;62745;51.060;13.786;2023-04-24T10:27:06;2.80;;;0.85;;
74328;SDS011;62745;51.060;13.786;2023-04-24T10:29:33;1.55;;;0.73;;
74328;SDS011;62745;51.060;13.786;2023-04-24T10:32:00;0.93;;;0.60;;
74328;SDS011;62745;51.060;13.786;2023-04-24T10:34:26;1.55;;;0.60;;
74328;SDS011;62745;51.060;13.786;2023-04-24T10:36:52;1.05;;;0.55;;
74328;SDS011;62745;51.060;13.786;2023-04-24T10:39:19;1.58;;;0.70;;
74328;SDS011;62745;51.060;13.786;2023-04-24T10:41:46;2.70;;;0.65;;
74328;SDS011;62745;51.060;13.786;2023-04-24T10:44:14;1.35;;;0.77;;
74328;SDS011;62745;51.060;13.786;2023-04-24T10:46:47;1.08;;;0.68;;
74328;SDS011;62745;51.060;13.786;2023-04-24T10:49:19;1.73;;;0.82;;
74328;SDS011;62745;51.060;13.786;2023-04-24T10:51:54;2.47;;;0.95;;
74328;SDS011;62745;51.060;13.786;2023-04-24T10:54:26;1.83;;;0.80;;
74328;SDS011;62745;51.060;13.786;2023-04-24T10:56:53;1.08;;;0.52;;
74328;SDS011;62745;51.060;13.786;2023-04-24T10:59:48;1.35;;;0.63;;
74328;SDS011;62745;51.060;13.786;2023-04-24T11:02:14;1.45;;;0.90;;
74328;SDS011;62745;51.060;13.786;2023-04-24T11:04:43;1.60;;;0.80;;
74328;SDS011;62745;51.060;13.786;2023-04-24T11:07:10;1.30;;;0.70;;
74328;SDS011;62745;51.060;13.786;2023-04-24T11:09:35;1.98;;;0.90;;
74328;SDS011;62745;51.060;13.786;2023-04-24T11:12:02;1.25;;;0.73;;
74328;SDS011;62745;51.060;13.786;2023-04-24T11:14:31;2.38;;;0.70;;
74328;SDS011;62745;51.060;13.786;2023-04-24T11:17:44;1.88;;;0.65;;
74328;SDS011;62745;51.060;13.786;2023-04-24T11:20:09;1.58;;;0.80;;
74328;SDS011;62745;51.060;13.786;2023-04-24T11:22:36;1.98;;;0.73;;
74328;SDS011;62745;51.060;13.786;2023-04-24T11:25:05;1.65;;;0.70;;
74328;SDS011;62745;51.060;13.786;2023-04-24T11:27:32;0.88;;;0.52;;
74328;SDS011;62745;51.060;13.786;2023-04-24T11:30:08;2.72;;;0.82;;
74328;SDS011;62745;51.060;13.786;2023-04-24T11:37:41;2.75;;;0.73;;
74328;SDS011;62745;51.060;13.786;2023-04-24T11:40:09;1.65;;;0.85;;
74328;SDS011;62745;51.060;13.786;2023-04-24T11:42:43;2.42;;;0.80;;
74328;SDS011;62745;51.060;13.786;2023-04-24T11:47:42;1.38;;;0.65;;
74328;SDS011;62745;51.060;13.786;2023-04-24T11:50:10;1.33;;;0.57;;
74328;SDS011;62745;51.060;13.786;2023-04-24T11:52:37;2.17;;;0.70;;
74328;SDS011;62745;51.060;13.786;2023-04-24T11:55:03;1.77;;;0.80;;
74328;SDS011;62745;51.060;13.786;2023-04-24T11:57:31;2.03;;;0.80;;
74328;SDS011;62745;51.060;13.786;2023-04-24T11:59:59;0.70;;;0.60;;
74328;SDS011;62745;51.060;13.786;2023-04-24T12:02:26;1.95;;;0.73;;
74328;SDS011;62745;51.060;13.786;2023-04-24T12:04:52;1.80;;;0.80;;
74328;SDS011;62745;51.060;13.786;2023-04-24T12:07:18;2.28;;;0.90;;
74328;SDS011;62745;51.060;13.786;2023-04-24T12:09:45;0.82;;;0.50;;
74328;SDS011;62745;51.060;13.786;2023-04-24T12:12:12;1.30;;;0.70;;
74328;SDS011;62745;51.060;13.786;2023-04-24T12:14:56;1.67;;;0.80;;
74328;SDS011;62745;51.060;13.786;2023-04-24T12:17:24;1.58;;;0.80;;
74328;SDS011;62745;51.060;13.786;2023-04-24T12:19:57;1.13;;;0.50;;
74328;SDS011;62745;51.060;13.786;2023-04-24T12:24:59;1.43;;;0.83;;
74328;SDS011;62745;51.060;13.786;2023-04-24T12:27:28;2.35;;;1.08;;
74328;SDS011;62745;51.060;13.786;2023-04-24T12:29:57;2.10;;;1.35;;
74328;SDS011;62745;51.060;13.786;2023-04-24T12:32:23;1.40;;;0.70;;
74328;SDS011;62745;51.060;13.786;2023-04-24T12:34:50;2.92;;;0.70;;
74328;SDS011;62745;51.060;13.786;2023-04-24T12:37:19;4.15;;;0.88;;
74328;SDS011;62745;51.060;13.786;2023-04-24T12:40:05;2.47;;;0.85;;
74328;SDS011;62745;51.060;13.786;2023-04-24T12:44:59;1.20;;;0.75;;
74328;SDS011;62745;51.060;13.786;2023-04-24T12:47:25;3.10;;;1.05;;
74328;SDS011;62745;51.060;13.786;2023-04-24T12:49:52;2.97;;;0.90;;
74328;SDS011;62745;51.060;13.786;2023-04-24T12:52:20;3.57;;;0.83;;
74328;SDS011;62745;51.060;13.786;2023-04-24T12:54:46;3.72;;;1.10;;
74328;SDS011;62745;51.060;13.786;2023-04-24T12:57:11;1.77;;;0.80;;
74328;SDS011;62745;51.060;13.786;2023-04-24T12:59:37;2.43;;;1.00;;
74328;SDS011;62745;51.060;13.786;2023-04-24T13:02:04;2.80;;;1.02;;
74328;SDS011;62745;51.060;13.786;2023-04-24T13:04:29;2.05;;;1.02;;
74328;SDS011;62745;51.060;13.786;2023-04-24T13:06:55;1.47;;;0.63;;
74328;SDS011;62745;51.060;13.786;2023-04-24T13:09:20;2.77;;;1.03;;
74328;SDS011;62745;51.060;13.786;2023-04-24T13:11:45;1.67;;;0.80;;
74328;SDS011;62745;51.060;13.786;2023-04-24T13:14:10;2.07;;;0.90;;
74328;SDS011;62745;51.060;13.786;2023-04-24T13:16:36;2.33;;;0.90;;
74328;SDS011;62745;51.060;13.786;2023-04-24T13:19:01;2.27;;;0.77;;
74328;SDS011;62745;51.060;13.786;2023-04-24T13:21:26;2.67;;;1.03;;
74328;SDS011;62745;51.060;13.786;2023-04-24T13:23:52;2.75;;;1.13;;
74328;SDS011;62745;51.060;13.786;2023-04-24T13:26:17;2.13;;;1.00;;
74328;SDS011;62745;51.060;13.786;2023-04-24T13:28:43;2.80;;;1.17;;
74328;SDS011;62745;51.060;13.786;2023-04-24T13:31:08;1.90;;;1.00;;
74328;SDS011;62745;51.060;13.786;2023-04-24T13:33:34;1.75;;;1.00;;
74328;SDS011;62745;51.060;13.786;2023-04-24T13:35:59;2.03;;;1.02;;
74328;SDS011;62745;51.060;13.786;2023-04-24T13:38:25;2.33;;;1.10;;
74328;SDS011;62745;51.060;13.786;2023-04-24T13:40:50;3.77;;;1.10;;
74328;SDS011;62745;51.060;13.786;2023-04-24T13:43:15;1.93;;;0.90;;
74328;SDS011;62745;51.060;13.786;2023-04-24T13:45:40;4.83;;;1.20;;
74328;SDS011;62745;51.060;13.786;2023-04-24T13:48:06;2.20;;;1.10;;
74328;SDS011;62745;51.060;13.786;2023-04-24T13:50:31;1.45;;;0.80;;
74328;SDS011;62745;51.060;13.786;2023-04-24T13:52:56;3.13;;;1.00;;
74328;SDS011;62745;51.060;13.786;2023-04-24T13:55:24;2.92;;;1.05;;
74328;SDS011;62745;51.060;13.786;2023-04-24T13:57:50;3.25;;;0.70;;
74328;SDS011;62745;51.060;13.786;2023-04-24T14:00:17;1.80;;;0.80;;
74328;SDS011;62745;51.060;13.786;2023-04-24T14:02:42;2.75;;;0.93;;
74328;SDS011;62745;51.060;13.786;2023-04-24T14:05:08;3.83;;;0.90;;
74328;SDS011;62745;51.060;13.786;2023-04-24T14:07:35;2.78;;;1.10;;
74328;SDS011;62745;51.060;13.786;2023-04-24T14:10:01;2.42;;;1.05;;
74328;SDS011;62745;51.060;13.786;2023-04-24T14:12:26;2.47;;;1.17;;
74328;SDS011;62745;51.060;13.786;2023-04-24T14:14:52;2.10;;;0.90;;
74328;SDS011;62745;51.060;13.786;2023-04-24T14:17:17;2.55;;;1.20;;
74328;SDS011;62745;51.060;13.786;2023-04-24T14:19:42;2.03;;;1.17;;
74328;SDS011;62745;51.060;13.786;2023-04-24T14:22:08;3.53;;;1.20;;
74328;SDS011;62745;51.060;13.786;2023-04-24T14:24:33;2.07;;;1.03;;
74328;SDS011;62745;51.060;13.786;2023-04-24T14:26:58;2.77;;;1.23;;
74328;SDS011;62745;51.060;13.786;2023-04-24T14:29:23;2.03;;;0.97;;
74328;SDS011;62745;51.060;13.786;2023-04-24T14:31:50;2.55;;;1.00;;
74328;SDS011;62745;51.060;13.786;2023-04-24T14:34:16;3.03;;;1.10;;
74328;SDS011;62745;51.060;13.786;2023-04-24T14:36:41;2.33;;;1.10;;
74328;SDS011;62745;51.060;13.786;2023-04-24T14:39:06;4.68;;;1.00;;
74328;SDS011;62745;51.060;13.786;2023-04-24T14:41:32;2.60;;;1.03;;
74328;SDS011;62745;51.060;13.786;2023-04-24T14:44:00;2.20;;;1.13;;
74328;SDS011;62745;51.060;13.786;2023-04-24T14:46:27;3.20;;;1.20;;
74328;SDS011;62745;51.060;13.786;2023-04-24T14:48:53;3.35;;;1.23;;